sensor_id;sensor_type;location;lat;lon;timestamp;pressure;altitude;pressure_sealevel;temperature;humidity
50702;BME280;36670;50.094;8.496;2023-11-21T00:01:44;99665.38;;;13.73;64.20
50702;BME280;36670;50.094;8.496;2023-11-21T00:04:10;99664.78;;;13.76;64.03
50702;BME280;36670;50.094;8.496;2023-11-21T00:06:36;99664.19;;;13.84;63.58
50702;BME280;36670;50.094;8.496;2023-11-21T00:09:02;99658.25;;;13.61;63.70
50702;BME280;36670;50.094;8.496;2023-11-21T00:11:27;99655.59;;;13.46;63.87
50702;BME280;36670;50.094;8.496;2023-11-21T00:13:54;99649.94;;;13.61;64.50
50702;BME280;36670;50.094;8.496;2023-11-21T00:16:19;99660.75;;;13.58;64.75
50702;BME280;36670;50.094;8.496;2023-11-21T00:18:45;99658.25;;;13.17;65.38
50702;BME280;36670;50.094;8.496;2023-11-21T00:21:12;99660.97;;;13.22;65.59
50702;BME280;36670;50.094;8.496;2023-11-21T00:23:37;99661.00;;;13.17;65.20
50702;BME280;36670;50.094;8.496;2023-11-21T00:26:05;99658.69;;;13.34;64.97
50702;BME280;36670;50.094;8.496;2023-11-21T00:28:31;99642.53;;;13.52;64.72
50702;BME280;36670;50.094;8.496;2023-11-21T00:30:57;99658.16;;;13.32;65.28
50702;BME280;36670;50.094;8.496;2023-11-21T00:33:22;99651.22;;;13.74;64.57
50702;BME280;36670;50.094;8.496;2023-11-21T00:35:48;99654.97;;;13.89;64.64
50702;BME280;36670;50.094;8.496;2023-11-21T00:38:13;99654.28;;;13.73;64.37
50702;BME280;36670;50.094;8.496;2023-11-21T00:40:39;99656.94;;;13.48;65.13
50702;BME280;36670;50.094;8.496;2023-11-21T00:43:04;99651.41;;;13.83;63.75
50702;BME280;36670;50.094;8.496;2023-11-21T00:45:30;99660.91;;;13.77;63.99
50702;BME280;36670;50.094;8.496;2023-11-21T00:47:55;99659.38;;;13.60;64.36
50702;BME280;36670;50.094;8.496;2023-11-21T00:50:21;99655.53;;;13.51;64.60
50702;BME280;36670;50.094;8.496;2023-11-21T00:52:47;99660.78;;;13.53;65.10
50702;BME280;36670;50.094;8.496;2023-11-21T00:55:12;99661.03;;;13.61;64.62
50702;BME280;36670;50.094;8.496;2023-11-21T00:57:38;99659.72;;;13.83;64.46
50702;BME280;36670;50.094;8.496;2023-11-21T01:00:04;99661.84;;;13.62;64.71
50702;BME280;36670;50.094;8.496;2023-11-21T01:02:38;99664.13;;;13.55;65.26
50702;BME280;36670;50.094;8.496;2023-11-21T01:05:04;99665.38;;;13.73;64.85
50702;BME280;36670;50.094;8.496;2023-11-21T01:07:30;99666.94;;;13.84;64.06
50702;BME280;36670;50.094;8.496;2023-11-21T01:09:55;99671.31;;;13.90;63.92
50702;BME280;36670;50.094;8.496;2023-11-21T01:12:21;99668.56;;;13.90;63.92
50702;BME280;36670;50.094;8.496;2023-11-21T01:14:46;99670.91;;;14.07;63.89
50702;BME280;36670;50.094;8.496;2023-11-21T01:17:12;99671.75;;;14.08;63.64
50702;BME280;36670;50.094;8.496;2023-11-21T01:19:37;99677.56;;;14.11;63.59
50702;BME280;36670;50.094;8.496;2023-11-21T01:22:03;99685.91;;;13.27;65.00
50702;BME280;36670;50.094;8.496;2023-11-21T01:24:29;99691.66;;;13.46;65.11
50702;BME280;36670;50.094;8.496;2023-11-21T01:26:54;99685.13;;;13.66;64.31
50702;BME280;36670;50.094;8.496;2023-11-21T01:29:19;99690.28;;;13.43;65.29
50702;BME280;36670;50.094;8.496;2023-11-21T01:31:45;99694.00;;;13.18;65.48
50702;BME280;36670;50.094;8.496;2023-11-21T01:34:10;99698.03;;;13.41;65.63
50702;BME280;36670;50.094;8.496;2023-11-21T01:36:36;99696.91;;;13.42;65.70
50702;BME280;36670;50.094;8.496;2023-11-21T01:39:01;99692.69;;;13.00;66.40
50702;BME280;36670;50.094;8.496;2023-11-21T01:41:27;99697.59;;;13.13;65.92
50702;BME280;36670;50.094;8.496;2023-11-21T01:43:56;99695.00;;;12.72;66.55
50702;BME280;36670;50.094;8.496;2023-11-21T01:46:22;99703.50;;;12.96;66.87
50702;BME280;36670;50.094;8.496;2023-11-21T01:48:52;99702.41;;;12.87;66.70
50702;BME280;36670;50.094;8.496;2023-11-21T01:51:18;99700.22;;;12.84;66.44
50702;BME280;36670;50.094;8.496;2023-11-21T01:53:44;99689.06;;;13.00;65.87
50702;BME280;36670;50.094;8.496;2023-11-21T01:56:12;99698.78;;;12.97;66.38
50702;BME280;36670;50.094;8.496;2023-11-21T01:58:39;99696.69;;;13.28;65.50
50702;BME280;36670;50.094;8.496;2023-11-21T02:01:04;99697.06;;;13.06;66.90
50702;BME280;36670;50.094;8.496;2023-11-21T02:03:30;99701.88;;;13.51;66.01
50702;BME280;36670;50.094;8.496;2023-11-21T02:05:56;99697.03;;;13.66;65.33
50702;BME280;36670;50.094;8.496;2023-11-21T02:08:21;99705.34;;;13.66;65.12
50702;BME280;36670;50.094;8.496;2023-11-21T02:10:47;99707.84;;;13.13;66.06
50702;BME280;36670;50.094;8.496;2023-11-21T02:13:13;99713.22;;;12.89;66.99
50702;BME280;36670;50.094;8.496;2023-11-21T02:15:38;99711.44;;;13.13;66.57
50702;BME280;36670;50.094;8.496;2023-11-21T02:18:04;99713.47;;;13.03;66.67
50702;BME280;36670;50.094;8.496;2023-11-21T02:20:31;99705.94;;;13.08;65.88
50702;BME280;36670;50.094;8.496;2023-11-21T02:23:00;99697.38;;;13.00;65.98
50702;BME280;36670;50.094;8.496;2023-11-21T02:25:26;99699.03;;;13.06;65.61
50702;BME280;36670;50.094;8.496;2023-11-21T02:27:55;99709.63;;;12.88;66.54
50702;BME280;36670;50.094;8.496;2023-11-21T02:30:21;99704.94;;;12.73;67.06
50702;BME280;36670;50.094;8.496;2023-11-21T02:32:50;99708.34;;;12.55;67.97
50702;BME280;36670;50.094;8.496;2023-11-21T02:35:18;99712.47;;;12.52;67.93
50702;BME280;36670;50.094;8.496;2023-11-21T02:37:46;99707.47;;;12.64;67.73
50702;BME280;36670;50.094;8.496;2023-11-21T02:40:12;99705.22;;;12.72;67.60
50702;BME280;36670;50.094;8.496;2023-11-21T02:42:38;99714.41;;;12.67;67.18
50702;BME280;36670;50.094;8.496;2023-11-21T02:45:05;99713.09;;;12.03;69.66
50702;BME280;36670;50.094;8.496;2023-11-21T02:47:31;99711.72;;;12.16;69.15
50702;BME280;36670;50.094;8.496;2023-11-21T02:49:56;99710.88;;;11.94;70.45
50702;BME280;36670;50.094;8.496;2023-11-21T02:52:21;99711.66;;;11.64;72.12
50702;BME280;36670;50.094;8.496;2023-11-21T02:54:47;99718.31;;;11.78;70.70
50702;BME280;36670;50.094;8.496;2023-11-21T02:57:12;99707.56;;;12.03;69.94
50702;BME280;36670;50.094;8.496;2023-11-21T02:59:38;99707.50;;;11.61;72.42
50702;BME280;36670;50.094;8.496;2023-11-21T03:02:04;99706.41;;;11.73;71.50
50702;BME280;36670;50.094;8.496;2023-11-21T03:04:29;99703.66;;;11.93;70.72
50702;BME280;36670;50.094;8.496;2023-11-21T03:06:56;99705.34;;;12.31;69.74
50702;BME280;36670;50.094;8.496;2023-11-21T03:09:21;99709.72;;;12.57;68.50
50702;BME280;36670;50.094;8.496;2023-11-21T03:11:46;99704.97;;;12.68;68.28
50702;BME280;36670;50.094;8.496;2023-11-21T03:14:12;99706.13;;;12.57;68.73
50702;BME280;36670;50.094;8.496;2023-11-21T03:16:37;99708.09;;;12.51;68.96
50702;BME280;36670;50.094;8.496;2023-11-21T03:19:04;99704.50;;;12.30;69.86
50702;BME280;36670;50.094;8.496;2023-11-21T03:21:30;99709.78;;;11.95;70.38
50702;BME280;36670;50.094;8.496;2023-11-21T03:23:55;99710.06;;;11.99;70.96
50702;BME280;36670;50.094;8.496;2023-11-21T03:26:21;99714.47;;;11.85;70.96
50702;BME280;36670;50.094;8.496;2023-11-21T03:28:46;99723.00;;;11.73;72.26
50702;BME280;36670;50.094;8.496;2023-11-21T03:31:11;99730.16;;;11.53;71.96
50702;BME280;36670;50.094;8.496;2023-11-21T03:33:37;99737.34;;;11.49;72.44
50702;BME280;36670;50.094;8.496;2023-11-21T03:36:02;99735.19;;;11.92;71.20
50702;BME280;36670;50.094;8.496;2023-11-21T03:38:29;99737.38;;;11.80;71.57
50702;BME280;36670;50.094;8.496;2023-11-21T03:40:54;99740.16;;;11.85;72.19
50702;BME280;36670;50.094;8.496;2023-11-21T03:43:19;99743.00;;;11.95;71.28
50702;BME280;36670;50.094;8.496;2023-11-21T03:45:45;99737.97;;;11.82;71.50
50702;BME280;36670;50.094;8.496;2023-11-21T03:48:12;99750.66;;;11.68;71.96
50702;BME280;36670;50.094;8.496;2023-11-21T03:50:37;99754.53;;;11.72;72.47
50702;BME280;36670;50.094;8.496;2023-11-21T03:53:04;99758.97;;;11.68;71.93
50702;BME280;36670;50.094;8.496;2023-11-21T03:55:29;99755.56;;;11.45;72.74
50702;BME280;36670;50.094;8.496;2023-11-21T03:57:56;99761.09;;;11.40;73.36
50702;BME280;36670;50.094;8.496;2023-11-21T04:00:22;99761.16;;;11.66;73.06
50702;BME280;36670;50.094;8.496;2023-11-21T04:02:47;99756.75;;;11.75;72.43
50702;BME280;36670;50.094;8.496;2023-11-21T04:05:12;99760.06;;;11.72;72.25
50702;BME280;36670;50.094;8.496;2023-11-21T04:07:38;99761.97;;;11.66;71.69
50702;BME280;36670;50.094;8.496;2023-11-21T04:10:07;99766.13;;;11.64;71.82
50702;BME280;36670;50.094;8.496;2023-11-21T04:12:38;99769.94;;;11.52;71.82
50702;BME280;36670;50.094;8.496;2023-11-21T04:15:04;99779.63;;;11.44;72.17
50702;BME280;36670;50.094;8.496;2023-11-21T04:17:29;99779.69;;;11.75;71.73
50702;BME280;36670;50.094;8.496;2023-11-21T04:19:55;99779.06;;;11.48;71.91
50702;BME280;36670;50.094;8.496;2023-11-21T04:22:21;99774.94;;;11.50;72.16
50702;BME280;36670;50.094;8.496;2023-11-21T04:24:46;99777.19;;;11.69;71.41
50702;BME280;36670;50.094;8.496;2023-11-21T04:27:12;99775.50;;;11.47;71.42
50702;BME280;36670;50.094;8.496;2023-11-21T04:29:38;99782.66;;;11.43;72.05
50702;BME280;36670;50.094;8.496;2023-11-21T04:32:04;99785.97;;;11.45;72.20
50702;BME280;36670;50.094;8.496;2023-11-21T04:34:29;99791.22;;;11.47;72.45
50702;BME280;36670;50.094;8.496;2023-11-21T04:36:56;99793.19;;;11.56;71.93
50702;BME280;36670;50.094;8.496;2023-11-21T04:39:21;99794.31;;;11.55;72.08
50702;BME280;36670;50.094;8.496;2023-11-21T04:41:47;99800.41;;;11.63;72.01
50702;BME280;36670;50.094;8.496;2023-11-21T04:44:12;99803.66;;;11.39;72.10
50702;BME280;36670;50.094;8.496;2023-11-21T04:46:38;99817.91;;;11.15;72.94
50702;BME280;36670;50.094;8.496;2023-11-21T04:49:03;99810.09;;;11.60;71.22
50702;BME280;36670;50.094;8.496;2023-11-21T04:51:29;99810.97;;;11.86;71.35
50702;BME280;36670;50.094;8.496;2023-11-21T04:53:54;99807.75;;;12.15;70.42
50702;BME280;36670;50.094;8.496;2023-11-21T04:56:19;99824.25;;;11.89;70.42
50702;BME280;36670;50.094;8.496;2023-11-21T04:58:45;99830.38;;;11.91;70.81
50702;BME280;36670;50.094;8.496;2023-11-21T05:01:10;99829.47;;;11.70;70.61
50702;BME280;36670;50.094;8.496;2023-11-21T05:03:37;99829.22;;;11.72;71.47
50702;BME280;36670;50.094;8.496;2023-11-21T05:06:04;99828.66;;;11.75;70.72
50702;BME280;36670;50.094;8.496;2023-11-21T05:08:30;99828.94;;;11.78;70.87
50702;BME280;36670;50.094;8.496;2023-11-21T05:10:56;99832.97;;;11.45;71.06
50702;BME280;36670;50.094;8.496;2023-11-21T05:13:22;99837.47;;;11.67;71.61
50702;BME280;36670;50.094;8.496;2023-11-21T05:15:52;99838.84;;;11.64;71.00
50702;BME280;36670;50.094;8.496;2023-11-21T05:18:18;99845.84;;;11.92;70.35
50702;BME280;36670;50.094;8.496;2023-11-21T05:20:43;99845.28;;;11.90;70.73
50702;BME280;36670;50.094;8.496;2023-11-21T05:23:09;99846.38;;;11.84;70.27
50702;BME280;36670;50.094;8.496;2023-11-21T05:25:34;99851.94;;;11.89;70.94
50702;BME280;36670;50.094;8.496;2023-11-21T05:27:59;99856.13;;;12.02;70.63
50702;BME280;36670;50.094;8.496;2023-11-21T05:30:26;99850.88;;;12.06;69.95
50702;BME280;36670;50.094;8.496;2023-11-21T05:32:52;99860.72;;;11.76;70.20
50702;BME280;36670;50.094;8.496;2023-11-21T05:35:17;99855.00;;;11.98;69.66
50702;BME280;36670;50.094;8.496;2023-11-21T05:37:43;99865.56;;;12.22;68.84
50702;BME280;36670;50.094;8.496;2023-11-21T05:40:09;99866.34;;;11.97;69.64
50702;BME280;36670;50.094;8.496;2023-11-21T05:42:35;99865.00;;;12.15;69.77
50702;BME280;36670;50.094;8.496;2023-11-21T05:45:01;99866.41;;;12.17;69.56
50702;BME280;36670;50.094;8.496;2023-11-21T05:47:42;99874.22;;;12.51;68.59
50702;BME280;36670;50.094;8.496;2023-11-21T05:50:12;99866.13;;;12.19;67.71
50702;BME280;36670;50.094;8.496;2023-11-21T05:52:48;99866.41;;;12.22;68.67
50702;BME280;36670;50.094;8.496;2023-11-21T05:55:14;99873.91;;;12.42;67.80
50702;BME280;36670;50.094;8.496;2023-11-21T05:57:42;99871.16;;;12.53;67.75
50702;BME280;36670;50.094;8.496;2023-11-21T06:00:09;99873.09;;;12.42;67.72
50702;BME280;36670;50.094;8.496;2023-11-21T06:02:49;99873.38;;;12.51;68.47
50702;BME280;36670;50.094;8.496;2023-11-21T06:05:23;99881.69;;;12.71;67.44
50702;BME280;36670;50.094;8.496;2023-11-21T06:07:50;99884.69;;;12.23;67.77
50702;BME280;36670;50.094;8.496;2023-11-21T06:10:15;99892.88;;;11.92;67.99
50702;BME280;36670;50.094;8.496;2023-11-21T06:12:43;99894.28;;;11.95;68.90
50702;BME280;36670;50.094;8.496;2023-11-21T06:15:09;99894.09;;;12.22;68.96
50702;BME280;36670;50.094;8.496;2023-11-21T06:17:37;99899.38;;;12.29;68.18
50702;BME280;36670;50.094;8.496;2023-11-21T06:20:04;99908.47;;;12.14;68.70
50702;BME280;36670;50.094;8.496;2023-11-21T06:22:37;99910.69;;;12.22;67.92
50702;BME280;36670;50.094;8.496;2023-11-21T06:25:03;99920.44;;;12.51;67.11
50702;BME280;36670;50.094;8.496;2023-11-21T06:27:34;99918.63;;;11.93;68.01
50702;BME280;36670;50.094;8.496;2023-11-21T06:30:01;99921.31;;;11.77;69.43
50702;BME280;36670;50.094;8.496;2023-11-21T06:32:26;99928.38;;;11.53;70.15
50702;BME280;36670;50.094;8.496;2023-11-21T06:34:54;99936.41;;;11.54;70.09
50702;BME280;36670;50.094;8.496;2023-11-21T06:37:20;99938.16;;;11.71;69.68
50702;BME280;36670;50.094;8.496;2023-11-21T06:39:50;99939.31;;;11.85;69.94
50702;BME280;36670;50.094;8.496;2023-11-21T06:42:17;99943.19;;;11.79;69.34
50702;BME280;36670;50.094;8.496;2023-11-21T06:44:42;99941.81;;;11.87;69.94
50702;BME280;36670;50.094;8.496;2023-11-21T06:47:09;99941.00;;;11.86;69.35
50702;BME280;36670;50.094;8.496;2023-11-21T06:49:34;99946.75;;;11.79;69.70
50702;BME280;36670;50.094;8.496;2023-11-21T06:52:00;99952.75;;;12.24;68.95
50702;BME280;36670;50.094;8.496;2023-11-21T06:54:27;99958.03;;;12.21;67.97
50702;BME280;36670;50.094;8.496;2023-11-21T06:56:53;99959.88;;;11.94;68.51
50702;BME280;36670;50.094;8.496;2023-11-21T06:59:18;99969.06;;;12.16;68.12
50702;BME280;36670;50.094;8.496;2023-11-21T07:01:43;99971.94;;;11.78;69.50
50702;BME280;36670;50.094;8.496;2023-11-21T07:04:09;99978.16;;;12.06;69.39
50702;BME280;36670;50.094;8.496;2023-11-21T07:06:35;99975.72;;;12.09;69.48
50702;BME280;36670;50.094;8.496;2023-11-21T07:09:00;99979.88;;;12.17;68.21
50702;BME280;36670;50.094;8.496;2023-11-21T07:11:27;99983.78;;;12.26;68.38
50702;BME280;36670;50.094;8.496;2023-11-21T07:13:52;99992.09;;;12.26;68.13
50702;BME280;36670;50.094;8.496;2023-11-21T07:16:18;99991.56;;;12.40;68.07
50702;BME280;36670;50.094;8.496;2023-11-21T07:18:44;99994.94;;;12.47;67.87
50702;BME280;36670;50.094;8.496;2023-11-21T07:21:09;100005.50;;;12.71;67.90
50702;BME280;36670;50.094;8.496;2023-11-21T07:23:37;100005.44;;;12.50;68.02
50702;BME280;36670;50.094;8.496;2023-11-21T07:26:02;100012.34;;;12.37;68.07
50702;BME280;36670;50.094;8.496;2023-11-21T07:28:28;100011.22;;;12.33;67.98
50702;BME280;36670;50.094;8.496;2023-11-21T07:30:55;100013.06;;;12.07;68.45
50702;BME280;36670;50.094;8.496;2023-11-21T07:33:20;100008.44;;;12.28;68.26
50702;BME280;36670;50.094;8.496;2023-11-21T07:35:46;100015.19;;;12.73;67.36
50702;BME280;36670;50.094;8.496;2023-11-21T07:38:11;100021.56;;;12.84;67.26
50702;BME280;36670;50.094;8.496;2023-11-21T07:40:38;100016.28;;;12.57;66.38
50702;BME280;36670;50.094;8.496;2023-11-21T07:43:03;100034.25;;;12.59;67.42
50702;BME280;36670;50.094;8.496;2023-11-21T07:45:28;100031.16;;;12.35;66.89
50702;BME280;36670;50.094;8.496;2023-11-21T07:47:54;100030.09;;;12.52;67.32
50702;BME280;36670;50.094;8.496;2023-11-21T07:50:21;100033.16;;;12.60;67.12
50702;BME280;36670;50.094;8.496;2023-11-21T07:52:48;100027.66;;;12.81;66.35
50702;BME280;36670;50.094;8.496;2023-11-21T07:55:14;100025.19;;;12.95;66.16
50702;BME280;36670;50.094;8.496;2023-11-21T07:57:40;100032.09;;;12.77;66.24
50702;BME280;36670;50.094;8.496;2023-11-21T08:00:06;100037.94;;;12.80;66.21
50702;BME280;36670;50.094;8.496;2023-11-21T08:02:34;100040.97;;;12.89;66.12
50702;BME280;36670;50.094;8.496;2023-11-21T08:04:59;100043.16;;;12.77;65.98
50702;BME280;36670;50.094;8.496;2023-11-21T08:07:25;100052.56;;;12.66;66.25
50702;BME280;36670;50.094;8.496;2023-11-21T08:09:51;100053.44;;;12.87;66.52
50702;BME280;36670;50.094;8.496;2023-11-21T08:12:17;100053.47;;;12.92;66.03
50702;BME280;36670;50.094;8.496;2023-11-21T08:14:43;100055.69;;;12.95;66.25
50702;BME280;36670;50.094;8.496;2023-11-21T08:17:09;100059.31;;;13.06;65.68
50702;BME280;36670;50.094;8.496;2023-11-21T08:19:35;100051.22;;;12.94;65.95
50702;BME280;36670;50.094;8.496;2023-11-21T08:22:01;100061.16;;;12.74;66.47
50702;BME280;36670;50.094;8.496;2023-11-21T08:24:26;100064.50;;;12.71;66.10
50702;BME280;36670;50.094;8.496;2023-11-21T08:26:52;100066.19;;;12.93;65.60
50702;BME280;36670;50.094;8.496;2023-11-21T08:29:19;100071.44;;;12.79;65.36
50702;BME280;36670;50.094;8.496;2023-11-21T08:31:44;100076.50;;;13.28;65.02
50702;BME280;36670;50.094;8.496;2023-11-21T08:34:12;100077.28;;;12.98;64.44
50702;BME280;36670;50.094;8.496;2023-11-21T08:36:44;100080.00;;;12.72;65.73
50702;BME280;36670;50.094;8.496;2023-11-21T08:39:10;100085.25;;;12.69;65.15
50702;BME280;36670;50.094;8.496;2023-11-21T08:41:36;100088.88;;;12.74;65.22
50702;BME280;36670;50.094;8.496;2023-11-21T08:44:02;100084.78;;;12.97;64.82
50702;BME280;36670;50.094;8.496;2023-11-21T08:46:27;100081.50;;;13.21;64.02
50702;BME280;36670;50.094;8.496;2023-11-21T08:48:53;100094.44;;;12.79;64.70
50702;BME280;36670;50.094;8.496;2023-11-21T08:51:18;100091.63;;;12.64;65.03
50702;BME280;36670;50.094;8.496;2023-11-21T08:53:44;100094.34;;;12.54;65.16
50702;BME280;36670;50.094;8.496;2023-11-21T08:56:15;100096.38;;;12.84;64.20
50702;BME280;36670;50.094;8.496;2023-11-21T08:58:40;100100.72;;;12.59;64.62
50702;BME280;36670;50.094;8.496;2023-11-21T09:01:06;100107.22;;;12.22;65.82
50702;BME280;36670;50.094;8.496;2023-11-21T09:03:32;100110.00;;;12.27;65.65
50702;BME280;36670;50.094;8.496;2023-11-21T09:05:59;100113.38;;;12.40;65.09
50702;BME280;36670;50.094;8.496;2023-11-21T09:08:24;100114.78;;;12.42;64.95
50702;BME280;36670;50.094;8.496;2023-11-21T09:10:50;100117.53;;;12.37;65.48
50702;BME280;36670;50.094;8.496;2023-11-21T09:13:15;100122.03;;;12.54;65.79
50702;BME280;36670;50.094;8.496;2023-11-21T09:15:42;100117.75;;;12.25;66.04
50702;BME280;36670;50.094;8.496;2023-11-21T09:18:14;100123.16;;;12.53;65.04
50702;BME280;36670;50.094;8.496;2023-11-21T09:20:40;100125.41;;;12.66;64.67
50702;BME280;36670;50.094;8.496;2023-11-21T09:23:06;100137.34;;;12.67;65.17
50702;BME280;36670;50.094;8.496;2023-11-21T09:25:32;100140.75;;;12.94;64.85
50702;BME280;36670;50.094;8.496;2023-11-21T09:27:57;100140.69;;;12.84;63.54
50702;BME280;36670;50.094;8.496;2023-11-21T09:30:23;100139.59;;;12.85;64.04
50702;BME280;36670;50.094;8.496;2023-11-21T09:32:50;100137.41;;;12.92;63.77
50702;BME280;36670;50.094;8.496;2023-11-21T09:35:15;100150.47;;;13.02;63.00
50702;BME280;36670;50.094;8.496;2023-11-21T09:37:43;100146.28;;;12.89;63.61
50702;BME280;36670;50.094;8.496;2023-11-21T09:40:11;100151.59;;;13.06;62.74
50702;BME280;36670;50.094;8.496;2023-11-21T09:42:48;100156.38;;;12.58;62.90
50702;BME280;36670;50.094;8.496;2023-11-21T09:45:24;100168.97;;;12.81;63.08
50702;BME280;36670;50.094;8.496;2023-11-21T09:47:52;100168.94;;;12.71;62.61
50702;BME280;36670;50.094;8.496;2023-11-21T09:50:18;100163.69;;;12.79;61.80
50702;BME280;36670;50.094;8.496;2023-11-21T09:55:18;100168.06;;;12.65;61.49
50702;BME280;36670;50.094;8.496;2023-11-21T09:57:45;100160.91;;;12.79;61.09
50702;BME280;36670;50.094;8.496;2023-11-21T10:00:11;100163.66;;;12.74;62.02
50702;BME280;36670;50.094;8.496;2023-11-21T10:02:38;100171.75;;;12.91;60.61
50702;BME280;36670;50.094;8.496;2023-11-21T10:05:06;100177.50;;;12.74;61.51
50702;BME280;36670;50.094;8.496;2023-11-21T10:07:31;100175.97;;;13.04;61.26
50702;BME280;36670;50.094;8.496;2023-11-21T10:10:00;100173.03;;;13.37;61.06
50702;BME280;36670;50.094;8.496;2023-11-21T10:12:28;100179.13;;;13.39;60.93
50702;BME280;36670;50.094;8.496;2023-11-21T10:14:54;100178.25;;;13.28;61.09
50702;BME280;36670;50.094;8.496;2023-11-21T10:17:23;100184.09;;;13.26;61.43
50702;BME280;36670;50.094;8.496;2023-11-21T10:19:52;100188.50;;;13.27;60.65
50702;BME280;36670;50.094;8.496;2023-11-21T10:22:19;100184.72;;;13.64;60.49
50702;BME280;36670;50.094;8.496;2023-11-21T10:24:45;100189.16;;;13.60;59.90
50702;BME280;36670;50.094;8.496;2023-11-21T10:27:11;100189.72;;;13.73;59.74
50702;BME280;36670;50.094;8.496;2023-11-21T10:29:36;100200.25;;;14.32;59.48
50702;BME280;36670;50.094;8.496;2023-11-21T10:32:02;100191.03;;;14.63;58.98
50702;BME280;36670;50.094;8.496;2023-11-21T10:34:28;100195.53;;;14.23;59.76
50702;BME280;36670;50.094;8.496;2023-11-21T10:36:54;100186.28;;;14.58;59.82
50702;BME280;36670;50.094;8.496;2023-11-21T10:39:23;100188.78;;;15.30;59.17
50702;BME280;36670;50.094;8.496;2023-11-21T10:41:49;100187.72;;;14.40;58.10
50702;BME280;36670;50.094;8.496;2023-11-21T10:44:17;100189.09;;;14.63;57.02
50702;BME280;36670;50.094;8.496;2023-11-21T10:46:55;100193.31;;;14.25;58.24
50702;BME280;36670;50.094;8.496;2023-11-21T10:49:26;100188.63;;;14.05;57.74
50702;BME280;36670;50.094;8.496;2023-11-21T10:51:55;100191.63;;;14.29;56.46
50702;BME280;36670;50.094;8.496;2023-11-21T10:54:21;100184.72;;;14.11;57.75
50702;BME280;36670;50.094;8.496;2023-11-21T10:57:00;100191.06;;;14.37;56.06
50702;BME280;36670;50.094;8.496;2023-11-21T10:59:30;100186.97;;;13.93;55.54
50702;BME280;36670;50.094;8.496;2023-11-21T11:01:57;100176.94;;;14.03;55.53
50702;BME280;36670;50.094;8.496;2023-11-21T11:04:25;100186.66;;;14.15;55.74
50702;BME280;36670;50.094;8.496;2023-11-21T11:06:57;100182.50;;;13.92;56.34
50702;BME280;36670;50.094;8.496;2023-11-21T11:09:24;100181.09;;;14.05;56.05
50702;BME280;36670;50.094;8.496;2023-11-21T11:11:51;100194.97;;;13.85;54.80
50702;BME280;36670;50.094;8.496;2023-11-21T11:14:18;100193.06;;;14.00;55.58
50702;BME280;36670;50.094;8.496;2023-11-21T11:16:44;100192.16;;;14.36;55.80
50702;BME280;36670;50.094;8.496;2023-11-21T11:19:10;100189.13;;;14.32;54.95
50702;BME280;36670;50.094;8.496;2023-11-21T11:25:03;100178.63;;;14.09;55.43
50702;BME280;36670;50.094;8.496;2023-11-21T11:30:38;100175.28;;;13.96;56.48
50702;BME280;36670;50.094;8.496;2023-11-21T11:33:29;100175.22;;;14.38;55.44
50702;BME280;36670;50.094;8.496;2023-11-21T11:36:25;100173.53;;;14.47;54.29
50702;BME280;36670;50.094;8.496;2023-11-21T11:38:51;100174.06;;;14.59;54.99
50702;BME280;36670;50.094;8.496;2023-11-21T11:41:35;100179.09;;;14.57;55.61
50702;BME280;36670;50.094;8.496;2023-11-21T11:44:01;100175.19;;;14.68;54.35
50702;BME280;36670;50.094;8.496;2023-11-21T11:46:42;100182.38;;;14.75;55.15
50702;BME280;36670;50.094;8.496;2023-11-21T11:49:10;100184.97;;;14.35;55.06
50702;BME280;36670;50.094;8.496;2023-11-21T11:51:36;100176.84;;;14.59;55.10
50702;BME280;36670;50.094;8.496;2023-11-21T11:54:02;100186.22;;;14.89;54.62
50702;BME280;36670;50.094;8.496;2023-11-21T11:56:33;100184.06;;;14.60;54.73
50702;BME280;36670;50.094;8.496;2023-11-21T11:59:03;100185.38;;;14.94;54.67
50702;BME280;36670;50.094;8.496;2023-11-21T12:01:31;100187.78;;;15.11;54.76
50702;BME280;36670;50.094;8.496;2023-11-21T12:06:45;100177.63;;;15.75;53.17
50702;BME280;36670;50.094;8.496;2023-11-21T12:09:21;100182.13;;;16.06;54.11
50702;BME280;36670;50.094;8.496;2023-11-21T12:11:49;100189.53;;;16.45;53.62
50702;BME280;36670;50.094;8.496;2023-11-21T12:14:15;100192.59;;;15.90;51.02
50702;BME280;36670;50.094;8.496;2023-11-21T12:16:42;100188.00;;;16.04;52.32
50702;BME280;36670;50.094;8.496;2023-11-21T12:19:08;100188.81;;;15.70;52.13
50702;BME280;36670;50.094;8.496;2023-11-21T12:21:34;100197.31;;;15.89;52.60
50702;BME280;36670;50.094;8.496;2023-11-21T12:24:01;100196.34;;;16.33;53.13
50702;BME280;36670;50.094;8.496;2023-11-21T12:26:26;100197.56;;;16.51;52.24
50702;BME280;36670;50.094;8.496;2023-11-21T12:28:55;100201.84;;;16.68;52.09
50702;BME280;36670;50.094;8.496;2023-11-21T12:31:21;100202.31;;;16.51;52.30
50702;BME280;36670;50.094;8.496;2023-11-21T12:33:47;100201.25;;;16.71;51.81
50702;BME280;36670;50.094;8.496;2023-11-21T12:36:12;100215.34;;;16.55;51.43
50702;BME280;36670;50.094;8.496;2023-11-21T12:38:38;100212.47;;;16.07;51.88
50702;BME280;36670;50.094;8.496;2023-11-21T12:41:03;100207.97;;;16.11;52.08
50702;BME280;36670;50.094;8.496;2023-11-21T12:43:29;100219.19;;;16.35;51.73
50702;BME280;36670;50.094;8.496;2023-11-21T12:46:08;100222.47;;;16.13;51.71
50702;BME280;36670;50.094;8.496;2023-11-21T12:48:41;100228.81;;;15.34;53.99
50702;BME280;36670;50.094;8.496;2023-11-21T12:51:09;100231.22;;;14.91;54.10
50702;BME280;36670;50.094;8.496;2023-11-21T12:53:35;100242.81;;;15.19;53.98
50702;BME280;36670;50.094;8.496;2023-11-21T12:56:10;100236.88;;;15.36;54.62
50702;BME280;36670;50.094;8.496;2023-11-21T12:58:37;100239.00;;;14.99;54.00
50702;BME280;36670;50.094;8.496;2023-11-21T13:01:04;100242.09;;;15.48;53.53
50702;BME280;36670;50.094;8.496;2023-11-21T13:03:30;100233.91;;;15.17;53.19
50702;BME280;36670;50.094;8.496;2023-11-21T13:05:56;100235.16;;;14.80;54.79